createdAt,value
2022-12-16T00:12:29.123Z,0.90
2022-12-16T00:15:08.221Z,0.55
2022-12-16T00:18:09.500Z,1.74
2022-12-16T00:23:51.756Z,0.86
2022-12-16T00:30:17.449Z,1.66
2022-12-16T00:32:47.127Z,0.63
2022-12-16T00:35:35.013Z,1.59
2022-12-16T00:38:19.074Z,0.98
2022-12-16T00:41:04.832Z,1.52
2022-12-16T00:44:11.215Z,0.95
2022-12-16T00:46:55.674Z,0.67
2022-12-16T00:49:35.082Z,1.46
2022-12-16T00:55:16.375Z,0.22
2022-12-16T00:58:01.096Z,0.12
2022-12-16T01:03:30.560Z,1.33
2022-12-16T01:16:10.140Z,1.21
2022-12-16T01:19:31.204Z,0.52
2022-12-16T01:22:53.889Z,1.13
2022-12-16T01:28:59.864Z,0.72
2022-12-16T01:31:50.867Z,-0.43
2022-12-16T01:34:58.483Z,1.06
2022-12-16T01:38:31.710Z,0.27
2022-12-16T01:48:24.355Z,0.63
2022-12-16T01:58:49.400Z,0.00
2022-12-16T02:01:50.181Z,0.68
2022-12-16T02:04:35.213Z,0.15
2022-12-16T02:11:36.889Z,-0.65
2022-12-16T02:15:37.965Z,-0.75
2022-12-16T02:18:43.789Z,0.71
2022-12-16T02:21:57.707Z,0.68
2022-12-16T02:25:35.716Z,0.70
2022-12-16T02:28:55.185Z,0.70
2022-12-16T02:31:55.303Z,0.40
2022-12-16T02:38:40.321Z,0.14
2022-12-16T02:41:47.488Z,-0.51
2022-12-16T02:45:05.511Z,0.47
2022-12-16T02:48:12.438Z,0.79
2022-12-16T02:54:26.874Z,-0.44
2022-12-16T02:57:30.717Z,-0.59
2022-12-16T03:00:42.664Z,0.17
2022-12-16T03:07:25.857Z,-0.31
2022-12-16T03:10:51.289Z,0.41
2022-12-16T03:27:54.411Z,-0.36
2022-12-16T03:38:01.305Z,-0.30
2022-12-16T03:41:28.933Z,0.14
2022-12-16T03:44:46.375Z,0.90
2022-12-16T03:48:32.239Z,0.59
2022-12-16T03:54:24.701Z,0.72
2022-12-16T03:57:10.419Z,-0.18
2022-12-16T04:02:54.211Z,-0.53
2022-12-16T04:09:34.798Z,-0.08
2022-12-16T04:12:31.675Z,0.32
2022-12-16T04:23:04.336Z,-0.69
2022-12-16T05:14:18.457Z,1.25
2022-12-16T05:27:46.609Z,1.46
2022-12-16T05:40:51.406Z,1.12
2022-12-16T05:50:56.505Z,1.02
2022-12-16T05:54:49.171Z,1.77
2022-12-16T06:30:51.075Z,1.45
2022-12-16T06:34:13.823Z,0.81
2022-12-16T06:40:14.879Z,1.95
2022-12-16T06:46:59.028Z,1.95
2022-12-16T07:21:23.768Z,1.70
2022-12-16T07:33:41.054Z,1.77
2022-12-16T07:36:53.681Z,2.05
2022-12-16T07:40:24.480Z,1.97
2022-12-16T07:43:04.123Z,1.79
2022-12-16T07:45:43.268Z,2.01
2022-12-16T07:51:45.620Z,1.03
2022-12-16T07:57:45.230Z,1.24
2022-12-16T08:00:16.111Z,1.82
2022-12-16T08:03:17.102Z,1.03
2022-12-16T08:05:52.243Z,1.80
2022-12-16T08:08:39.690Z,1.47
2022-12-16T08:11:28.350Z,2.09
2022-12-16T08:14:23.582Z,1.76
2022-12-16T08:17:48.989Z,2.04
2022-12-16T08:20:32.788Z,1.01
2022-12-16T08:23:01.998Z,1.64
2022-12-16T08:28:41.101Z,1.88
2022-12-16T08:31:18.066Z,2.10
2022-12-16T08:33:53.997Z,1.10
2022-12-16T08:40:34.302Z,1.30
2022-12-16T08:47:16.794Z,1.29
2022-12-16T09:00:35.209Z,1.24
2022-12-16T09:04:06.572Z,2.19
2022-12-16T09:06:49.928Z,1.96
2022-12-16T09:09:24.783Z,1.39
2022-12-16T09:13:12.207Z,2.03
2022-12-16T09:15:15.312Z,2.02
2022-12-16T09:17:53.484Z,2.06
2022-12-16T09:20:24.871Z,2.34
2022-12-16T09:23:04.002Z,2.37
2022-12-16T09:25:35.722Z,2.10
2022-12-16T09:28:02.704Z,1.67
2022-12-16T09:30:50.758Z,1.23
2022-12-16T09:36:51.231Z,1.46
2022-12-16T09:42:37.239Z,2.29
2022-12-16T09:45:39.186Z,2.35
2022-12-16T09:48:30.074Z,2.18
2022-12-16T09:51:58.593Z,1.02
2022-12-16T10:01:42.276Z,1.53
2022-12-16T10:07:48.371Z,1.24
2022-12-16T10:11:05.210Z,1.42
2022-12-16T10:14:19.494Z,1.63
2022-12-16T10:24:15.814Z,2.37
2022-12-16T10:27:47.718Z,1.53
2022-12-16T10:30:41.768Z,1.31
2022-12-16T10:36:36.346Z,1.35
2022-12-16T10:45:35.696Z,1.77
2022-12-16T10:48:18.615Z,2.39
2022-12-16T10:51:14.655Z,2.14
2022-12-16T10:54:18.728Z,2.40
2022-12-16T10:57:06.498Z,1.31
2022-12-16T10:59:41.081Z,2.20
2022-12-16T11:02:23.283Z,2.48
2022-12-16T11:04:57.227Z,1.35
2022-12-16T11:07:39.643Z,1.99
2022-12-16T11:13:26.894Z,2.48
2022-12-16T11:16:31.394Z,2.19
2022-12-16T11:19:04.519Z,1.37
2022-12-16T11:21:58.797Z,2.49
2022-12-16T11:27:47.827Z,2.08
2022-12-16T11:34:05.822Z,1.39
2022-12-16T11:39:51.267Z,2.44
2022-12-16T11:42:38.028Z,1.66
2022-12-16T11:52:21.126Z,1.70
2022-12-16T11:55:02.382Z,1.40
2022-12-16T11:58:11.780Z,1.97
2022-12-16T12:03:48.245Z,2.61
2022-12-16T12:06:31.061Z,1.57
2022-12-16T12:09:36.391Z,2.65
2022-12-16T12:12:30.421Z,2.63
2022-12-16T12:15:16.042Z,1.60
2022-12-16T12:17:55.951Z,2.00
2022-12-16T12:20:47.642Z,2.37
2022-12-16T12:23:52.830Z,2.12
2022-12-16T12:26:51.834Z,1.65
2022-12-16T12:30:00.231Z,2.35
2022-12-16T12:32:43.974Z,1.47
2022-12-16T12:35:48.259Z,2.48
2022-12-16T12:38:43.082Z,2.48
2022-12-16T12:41:40.199Z,1.46
2022-12-16T12:44:48.950Z,2.54
2022-12-16T12:47:45.175Z,2.28
2022-12-16T12:50:25.760Z,2.19
2022-12-16T12:53:20.913Z,1.57
2022-12-16T13:00:38.314Z,1.64
2022-12-16T13:27:56.824Z,2.86
2022-12-16T13:29:37.808Z,2.39
2022-12-16T13:32:21.847Z,1.87
2022-12-16T13:35:26.327Z,2.26
2022-12-16T13:37:57.700Z,2.53
2022-12-16T13:40:33.323Z,2.88
2022-12-16T13:43:40.772Z,1.79
2022-12-16T13:46:18.157Z,2.91
2022-12-16T13:48:45.179Z,2.39
2022-12-16T13:51:44.720Z,2.92
2022-12-16T13:54:16.783Z,2.93
2022-12-16T13:56:52.073Z,1.88
2022-12-16T13:59:22.568Z,1.80
2022-12-16T14:01:54.191Z,2.85
2022-12-16T14:04:28.392Z,2.78
2022-12-16T14:07:01.764Z,2.88
2022-12-16T14:09:37.228Z,2.73
2022-12-16T14:12:13.327Z,2.81
2022-12-16T14:14:51.759Z,2.84
2022-12-16T14:17:29.328Z,1.80
2022-12-16T14:20:03.567Z,2.86
2022-12-16T14:22:49.221Z,1.81
2022-12-16T14:25:24.695Z,2.80
2022-12-16T14:27:54.936Z,2.76
2022-12-16T14:30:26.038Z,2.55
2022-12-16T14:32:58.538Z,2.45
2022-12-16T14:35:30.043Z,2.82
2022-12-16T14:37:57.809Z,2.05
2022-12-16T14:40:35.810Z,1.72
2022-12-16T14:43:03.967Z,2.84
2022-12-16T14:45:52.264Z,1.71
2022-12-16T14:48:50.080Z,2.79
2022-12-16T14:51:40.109Z,1.74
2022-12-16T14:54:21.988Z,2.75
2022-12-16T14:57:01.227Z,2.54
2022-12-16T14:59:39.687Z,1.95
2022-12-16T15:02:29.000Z,1.69
2022-12-16T15:08:15.122Z,2.68
2022-12-16T15:10:45.354Z,2.33
2022-12-16T15:13:22.904Z,2.68
2022-12-16T15:15:50.281Z,2.68
2022-12-16T15:18:20.107Z,2.69
2022-12-16T15:21:04.525Z,2.68
2022-12-16T15:23:39.914Z,2.12
2022-12-16T15:26:16.844Z,2.39
2022-12-16T15:28:45.193Z,2.30
2022-12-16T15:31:26.025Z,2.64
2022-12-16T15:34:37.482Z,1.49
2022-12-16T15:37:22.128Z,1.51
2022-12-16T15:39:49.396Z,2.57
2022-12-16T15:42:28.731Z,1.92
2022-12-16T15:44:57.549Z,2.32
2022-12-16T15:47:37.008Z,2.07
2022-12-16T15:50:05.874Z,1.26
2022-12-16T15:52:39.985Z,2.12
2022-12-16T15:55:25.299Z,1.93
2022-12-16T15:57:59.524Z,1.90
2022-12-16T16:00:37.824Z,2.35
2022-12-16T16:03:08.376Z,1.87
2022-12-16T16:05:37.638Z,1.49
2022-12-16T16:08:10.294Z,1.68
2022-12-16T16:10:37.589Z,2.25
2022-12-16T16:13:09.465Z,1.84
2022-12-16T16:15:37.934Z,2.21
2022-12-16T16:18:13.986Z,1.44
2022-12-16T16:21:04.648Z,2.17
2022-12-16T16:26:36.085Z,1.57
2022-12-16T16:29:19.577Z,2.10
2022-12-16T17:06:57.255Z,1.27
2022-12-16T17:10:06.129Z,0.72
2022-12-16T17:22:37.698Z,0.68
2022-12-16T17:28:51.191Z,0.04
2022-12-16T17:33:39.661Z,0.52
2022-12-16T17:49:22.593Z,0.17
2022-12-16T17:52:43.181Z,0.49
2022-12-16T18:08:37.323Z,0.40
2022-12-16T18:21:35.289Z,0.02
2022-12-16T18:24:25.028Z,0.56
2022-12-16T18:27:33.739Z,-0.59
2022-12-16T18:30:52.423Z,0.22
2022-12-16T18:40:25.830Z,-0.57
2022-12-16T19:00:14.015Z,0.87
2022-12-16T19:03:26.181Z,-0.33
2022-12-16T19:09:56.373Z,-0.41
2022-12-16T19:13:18.365Z,0.82
2022-12-16T19:24:37.562Z,0.64
2022-12-16T19:35:36.446Z,0.56
2022-12-16T19:38:45.042Z,-0.23
2022-12-16T19:42:02.921Z,0.83
2022-12-16T20:09:21.037Z,-0.47
2022-12-16T20:19:11.520Z,0.61
2022-12-16T20:56:12.826Z,0.30
2022-12-16T21:09:32.063Z,-0.68
2022-12-16T23:45:57.944Z,-0.83
